Ardrossan, Canada
Current Conditions -  °F | °C
As of 11:07 PM on Wednesday 28 Jan 2015 (Local Time) from CYXD Reporting Station
Scattered Clouds Scattered Clouds  
Wind Chill: 13°   Ceiling: Unl
Heat Index: 19°   Visibility: 9mi
Dew Point: 14°   Wind: 5mph
Humidity: 80%   Direction: 80°E
Pressure: 30.38"   Gusts: NA
Location:  53.55°N, 113.13°W
Report Text: CYXD 290607Z AUTO 08004KT 9SM SCT008 M07/M10 A3038
Loading
Personal Weather Stations






























Interactive Weather Map New forecast layout! Learn more

10-Day Weather Forecast

Advertisements
Track Severe Weather on mobile